GNTO2: Elm Fork Red River HWY 6 nr Granite 5S

Data processed at Tue May 21 2019 22:30


All information presented herein is the property of the government of the United States of America and may be revised or deleted at any time without prior notice.
Dissemination of this information without the expressed written consent of the Public Affairs Office, Tulsa District U.S. Army Corps of Engineers is strictly prohibited.
These data are gathered electronically and, as presented, have not undergone any form of quality control. These data are not guaranteed to be valid or correct.
Go to home page.
Go to station list.
Go to home page.

Upstream stations:

Downstream station:
Previous Day
Next Day
Current Day
    
SHEF ID:       GNTO2     Elm Fk Red Rvr HWY 6 nr Granite
STATION TYPE:  
Regulating: Stage =    14.00, Flow =     3000

               PRECIP     STAGE  RIV-FLOW   VOLTAGE  BAT-LOAD
                   in        ft       cfs      volt      volt
              Ccp-Rev   Ccp-Rev   Ccp-Rev   Ccp-Rev   Ccp-Rev
(US/Central)
05/21 00:00      0.13      7.57       414     12.73     12.65
05/21 01:00      0.03      8.42       835     12.73     12.65
05/21 02:00      0.07      9.21      1171     12.73     12.65
05/21 03:00      0.06      9.91      1434     12.73     12.65
05/21 04:00      0.05     10.51      1659     12.73     12.65
05/21 05:00      0.07     11.00      1843     12.73     12.57
05/21 06:00      0.00     11.40      1994     12.73     12.57
05/21 07:00      0.00     11.69      2102     12.73     12.57
05/21 08:00      0.00     11.89      2178     12.73     12.65
05/21 09:00      0.00     12.05      2240     13.21     12.97
05/21 10:00      0.00     12.13      2271     13.44     13.53
05/21 11:00      0.00     12.13      2271     13.37     13.37
05/21 12:00      0.00     12.07      2248     13.37     13.53
05/21 13:00      0.00     11.98      2213     13.44     13.84
05/21 14:00      0.00     11.84      2159     13.60     13.68
05/21 15:00      0.00     11.66      2091     13.92     12.97
05/21 16:00      0.00     11.53      2042     13.44     12.97
05/21 17:00      0.00     11.37      1982     13.92     13.05
05/21 18:00      0.00     11.26      1941     13.92     12.89
05/21 19:00      0.00     11.17      1907     13.53     12.89
05/21 20:00      0.00     11.16      1904     12.89     12.81
05/21 21:00      0.00     11.17      1907     12.89     12.81
05/21 22:00      ----      ----      ----      ----      ----
05/21 23:00      ----      ----      ----      ----      ----